CFG3PY LEPA-EDDM
Flight info
| Callsign | CFG3PY |
|---|---|
| Flight time | 1h 38m |
| Altitude | 38000 |
| Route | MEROS DCT LAPIT DCT CHELY DCT LUMAS DCT UNANA DCT STP DCT RAPED DCT PIGOS DCT EKSID DCT NOSTA DCT NOPMU DCT VAKON DCT TAGIP DCT GUNGO DCT TISAX DCT IVKAL T102 NINUR T101 BETOS BETOS1B |
| Aircraft | A21N/M-SBDE3FGHIJ1J4J7LORVWXYZ/SB2D1G1 |
Departure
| Time | 2026-05-05 12:15 |
|---|---|
| Airport | Palma de Mallorca Airport (LEPA) |
Arrival
| Time | 2026-05-05 13:54 |
|---|---|
| Airport | Munich Airport (EDDM) |
| Time | Latitude | Longitude | Altitude | Speed | Heading |
|---|---|---|---|---|---|
| 2026-05-05 11:40 | 39.54983 | 2.73391 | 34 ft | 0 kts | 165° |
| 2026-05-05 12:04 | 39.54983 | 2.73390 | 34 ft | 0 kts | 165° |
| 2026-05-05 12:05 | 39.54984 | 2.73390 | 34 ft | 0 kts | 165° |
| 2026-05-05 12:05 | 39.54991 | 2.73388 | 34 ft | 2 kts | 166° |
| 2026-05-05 12:06 | 39.55006 | 2.73383 | 34 ft | 2 kts | 167° |
| 2026-05-05 12:06 | 39.55018 | 2.73380 | 34 ft | 0 kts | 167° |
| 2026-05-05 12:06 | 39.55029 | 2.73373 | 34 ft | 2 kts | 126° |
| 2026-05-05 12:06 | 39.55033 | 2.73360 | 33 ft | 1 kts | 89° |
| 2026-05-05 12:07 | 39.55032 | 2.73352 | 33 ft | 0 kts | 89° |
| 2026-05-05 12:09 | 39.55039 | 2.73394 | 34 ft | 8 kts | 68° |
| 2026-05-05 12:09 | 39.55074 | 2.73474 | 39 ft | 8 kts | 59° |
| 2026-05-05 12:10 | 39.55106 | 2.73543 | 45 ft | 9 kts | 59° |
| 2026-05-05 12:10 | 39.55136 | 2.73605 | 49 ft | 9 kts | 58° |
| 2026-05-05 12:10 | 39.55174 | 2.73687 | 50 ft | 11 kts | 67° |
| 2026-05-05 12:10 | 39.55171 | 2.73791 | 50 ft | 12 kts | 67° |
| 2026-05-05 12:11 | 39.55249 | 2.73794 | 48 ft | 15 kts | 330° |
| 2026-05-05 12:11 | 39.55352 | 2.73712 | 42 ft | 19 kts | 328° |
| 2026-05-05 12:11 | 39.55466 | 2.73621 | 31 ft | 17 kts | 329° |
| 2026-05-05 12:11 | 39.55574 | 2.73537 | 26 ft | 18 kts | 328° |
| 2026-05-05 12:12 | 39.55676 | 2.73550 | 22 ft | 17 kts | 56° |
| 2026-05-05 12:12 | 39.55741 | 2.73685 | 19 ft | 18 kts | 59° |
| 2026-05-05 12:12 | 39.55808 | 2.73829 | 18 ft | 18 kts | 59° |
| 2026-05-05 12:12 | 39.55873 | 2.73968 | 20 ft | 17 kts | 58° |
| 2026-05-05 12:13 | 39.55934 | 2.74096 | 23 ft | 15 kts | 59° |
| 2026-05-05 12:13 | 39.55986 | 2.74206 | 26 ft | 13 kts | 59° |
| 2026-05-05 12:13 | 39.56037 | 2.74315 | 25 ft | 15 kts | 59° |
| 2026-05-05 12:13 | 39.56096 | 2.74429 | 20 ft | 10 kts | 38° |
| 2026-05-05 12:14 | 39.56154 | 2.74450 | 21 ft | 8 kts | 340° |
| 2026-05-05 12:14 | 39.56222 | 2.74399 | 21 ft | 15 kts | 316° |
| 2026-05-05 12:14 | 39.56220 | 2.74253 | 21 ft | 27 kts | 239° |
| 2026-05-05 12:14 | 39.56004 | 2.73798 | 18 ft | 94 kts | 238° |
| 2026-05-05 12:15 | 39.55551 | 2.72839 | 18 ft | 152 kts | 239° |
| 2026-05-05 12:15 | 39.54971 | 2.71590 | 472 ft | 160 kts | 237° |
| 2026-05-05 12:15 | 39.54405 | 2.70379 | 1096 ft | 162 kts | 237° |
| 2026-05-05 12:15 | 39.53799 | 2.69101 | 1595 ft | 173 kts | 236° |
| 2026-05-05 12:16 | 39.53146 | 2.67747 | 1925 ft | 186 kts | 237° |
| 2026-05-05 12:16 | 39.52427 | 2.66264 | 2231 ft | 201 kts | 237° |
| 2026-05-05 12:16 | 39.51669 | 2.64690 | 2594 ft | 214 kts | 237° |
| 2026-05-05 12:16 | 39.50867 | 2.63021 | 3080 ft | 222 kts | 238° |
| 2026-05-05 12:17 | 39.50058 | 2.61368 | 3828 ft | 219 kts | 233° |
| 2026-05-05 12:17 | 39.48975 | 2.59933 | 4247 ft | 232 kts | 217° |
| 2026-05-05 12:17 | 39.47541 | 2.58784 | 4631 ft | 248 kts | 211° |
| 2026-05-05 12:17 | 39.46033 | 2.57683 | 5363 ft | 249 kts | 209° |
| 2026-05-05 12:18 | 39.44413 | 2.57031 | 6071 ft | 253 kts | 181° |
| 2026-05-05 12:18 | 39.42715 | 2.57699 | 6781 ft | 261 kts | 148° |
| 2026-05-05 12:18 | 39.41483 | 2.59408 | 7478 ft | 270 kts | 121° |
| 2026-05-05 12:18 | 39.40974 | 2.61744 | 8136 ft | 279 kts | 94° |
| 2026-05-05 12:19 | 39.41064 | 2.64254 | 8728 ft | 286 kts | 89° |
| 2026-05-05 12:19 | 39.41192 | 2.66885 | 9111 ft | 301 kts | 90° |
| 2026-05-05 12:19 | 39.41303 | 2.69622 | 9688 ft | 307 kts | 90° |
| 2026-05-05 12:19 | 39.41400 | 2.72413 | 10338 ft | 311 kts | 91° |
| 2026-05-05 12:20 | 39.41484 | 2.75202 | 10963 ft | 314 kts | 91° |
| 2026-05-05 12:20 | 39.41563 | 2.78014 | 11570 ft | 318 kts | 91° |
| 2026-05-05 12:20 | 39.41639 | 2.80891 | 12143 ft | 323 kts | 91° |
| 2026-05-05 12:20 | 39.41714 | 2.83791 | 12770 ft | 326 kts | 91° |
| 2026-05-05 12:21 | 39.41788 | 2.86717 | 13324 ft | 330 kts | 91° |
| 2026-05-05 12:21 | 39.41864 | 2.89713 | 13886 ft | 334 kts | 91° |
| 2026-05-05 12:21 | 39.41937 | 2.92729 | 14431 ft | 338 kts | 91° |
| 2026-05-05 12:21 | 39.42011 | 2.95741 | 14963 ft | 342 kts | 91° |
| 2026-05-05 12:22 | 39.42087 | 2.98832 | 15487 ft | 346 kts | 91° |
| 2026-05-05 12:22 | 39.42174 | 3.01936 | 16012 ft | 350 kts | 88° |
| 2026-05-05 12:22 | 39.42778 | 3.05044 | 16277 ft | 365 kts | 62° |
| 2026-05-05 12:22 | 39.44371 | 3.07610 | 16517 ft | 374 kts | 39° |
| 2026-05-05 12:23 | 39.46455 | 3.09759 | 16751 ft | 385 kts | 35° |
| 2026-05-05 12:23 | 39.48608 | 3.11911 | 16972 ft | 398 kts | 36° |
| 2026-05-05 12:23 | 39.50755 | 3.14189 | 17308 ft | 406 kts | 38° |
| 2026-05-05 12:23 | 39.52897 | 3.16594 | 17810 ft | 408 kts | 39° |
| 2026-05-05 12:24 | 39.55009 | 3.19055 | 18283 ft | 412 kts | 40° |
| 2026-05-05 12:24 | 39.57131 | 3.21579 | 18733 ft | 415 kts | 40° |
| 2026-05-05 12:24 | 39.59272 | 3.24159 | 19161 ft | 419 kts | 40° |
| 2026-05-05 12:24 | 39.61394 | 3.26732 | 19569 ft | 422 kts | 41° |
| 2026-05-05 12:25 | 39.63534 | 3.29335 | 19982 ft | 426 kts | 41° |
| 2026-05-05 12:25 | 39.65723 | 3.32005 | 20392 ft | 429 kts | 41° |
| 2026-05-05 12:25 | 39.67907 | 3.34673 | 20790 ft | 433 kts | 41° |
| 2026-05-05 12:25 | 39.70100 | 3.37353 | 21169 ft | 436 kts | 41° |
| 2026-05-05 12:26 | 39.72307 | 3.40052 | 21541 ft | 440 kts | 41° |
| 2026-05-05 12:26 | 39.74540 | 3.42786 | 21924 ft | 443 kts | 41° |
| 2026-05-05 12:26 | 39.76790 | 3.45545 | 22303 ft | 446 kts | 41° |
| 2026-05-05 12:26 | 39.79046 | 3.48313 | 22670 ft | 449 kts | 41° |
| 2026-05-05 12:27 | 39.81297 | 3.51078 | 23022 ft | 452 kts | 41° |
| 2026-05-05 12:27 | 39.83588 | 3.53894 | 23372 ft | 455 kts | 41° |
| 2026-05-05 12:27 | 39.85883 | 3.56718 | 23712 ft | 458 kts | 41° |
| 2026-05-05 12:27 | 39.88206 | 3.59580 | 24063 ft | 461 kts | 41° |
| 2026-05-05 12:28 | 39.90539 | 3.62459 | 24413 ft | 464 kts | 41° |
| 2026-05-05 12:28 | 39.92897 | 3.65369 | 24762 ft | 466 kts | 41° |
| 2026-05-05 12:28 | 39.95231 | 3.68251 | 25073 ft | 469 kts | 41° |
| 2026-05-05 12:28 | 39.97615 | 3.71199 | 25375 ft | 471 kts | 41° |
| 2026-05-05 12:29 | 39.99998 | 3.74148 | 25668 ft | 474 kts | 41° |
| 2026-05-05 12:29 | 40.02370 | 3.77088 | 25952 ft | 477 kts | 41° |
| 2026-05-05 12:29 | 40.04792 | 3.80091 | 26249 ft | 479 kts | 41° |
| 2026-05-05 12:29 | 40.07211 | 3.83093 | 26525 ft | 482 kts | 41° |
| 2026-05-05 12:30 | 40.09637 | 3.86108 | 26796 ft | 484 kts | 41° |
| 2026-05-05 12:30 | 40.12089 | 3.89159 | 27078 ft | 486 kts | 41° |
| 2026-05-05 12:30 | 40.14527 | 3.92198 | 27337 ft | 489 kts | 41° |
| 2026-05-05 12:30 | 40.16991 | 3.95269 | 27597 ft | 491 kts | 41° |
| 2026-05-05 12:31 | 40.19449 | 3.98337 | 27842 ft | 493 kts | 41° |
| 2026-05-05 12:31 | 40.21939 | 4.01447 | 28087 ft | 495 kts | 41° |
| 2026-05-05 12:31 | 40.24437 | 4.04569 | 28345 ft | 498 kts | 41° |
| 2026-05-05 12:31 | 40.26952 | 4.07716 | 28564 ft | 500 kts | 41° |
| 2026-05-05 12:32 | 40.29452 | 4.10851 | 28811 ft | 502 kts | 41° |
| 2026-05-05 12:32 | 40.31985 | 4.14028 | 29061 ft | 504 kts | 41° |
| 2026-05-05 12:32 | 40.34525 | 4.17214 | 29290 ft | 507 kts | 41° |
| 2026-05-05 12:32 | 40.37060 | 4.20403 | 29512 ft | 509 kts | 41° |
| 2026-05-05 12:33 | 40.39639 | 4.23647 | 29757 ft | 511 kts | 41° |
| 2026-05-05 12:33 | 40.42200 | 4.26871 | 29982 ft | 513 kts | 41° |
| 2026-05-05 12:33 | 40.44774 | 4.30106 | 30216 ft | 515 kts | 40° |
| 2026-05-05 12:33 | 40.47535 | 4.33085 | 30391 ft | 514 kts | 32° |
| 2026-05-05 12:34 | 40.50575 | 4.35543 | 30656 ft | 510 kts | 22° |
| 2026-05-05 12:34 | 40.53753 | 4.37374 | 31018 ft | 501 kts | 13° |
| 2026-05-05 12:34 | 40.57064 | 4.38614 | 31367 ft | 493 kts | 5° |
| 2026-05-05 12:34 | 40.60417 | 4.39449 | 31715 ft | 490 kts | 2° |
| 2026-05-05 12:35 | 40.63789 | 4.40181 | 32023 ft | 489 kts | 2° |
| 2026-05-05 12:35 | 40.67127 | 4.40901 | 32312 ft | 490 kts | 2° |
| 2026-05-05 12:35 | 40.70480 | 4.41651 | 32621 ft | 490 kts | 2° |
| 2026-05-05 12:35 | 40.73869 | 4.42437 | 32945 ft | 489 kts | 2° |
| 2026-05-05 12:36 | 40.77189 | 4.43223 | 33296 ft | 488 kts | 3° |
| 2026-05-05 12:36 | 40.80538 | 4.44023 | 33573 ft | 489 kts | 3° |
| 2026-05-05 12:36 | 40.83873 | 4.44820 | 33837 ft | 489 kts | 2° |
| 2026-05-05 12:36 | 40.87208 | 4.45622 | 34122 ft | 489 kts | 3° |
| 2026-05-05 12:37 | 40.90577 | 4.46435 | 34357 ft | 489 kts | 2° |
| 2026-05-05 12:37 | 40.93911 | 4.47244 | 34569 ft | 490 kts | 3° |
| 2026-05-05 12:37 | 40.97252 | 4.48056 | 34759 ft | 491 kts | 2° |
| 2026-05-05 12:37 | 41.00621 | 4.48871 | 34961 ft | 492 kts | 2° |
| 2026-05-05 12:38 | 41.03983 | 4.49688 | 35173 ft | 492 kts | 2° |
| 2026-05-05 12:38 | 41.07378 | 4.50513 | 35396 ft | 492 kts | 3° |
| 2026-05-05 12:38 | 41.10746 | 4.51336 | 35567 ft | 493 kts | 3° |
| 2026-05-05 12:38 | 41.14129 | 4.52167 | 35733 ft | 494 kts | 3° |
| 2026-05-05 12:39 | 41.17479 | 4.52988 | 35890 ft | 495 kts | 3° |
| 2026-05-05 12:39 | 41.20884 | 4.53820 | 35920 ft | 495 kts | 2° |
| 2026-05-05 12:39 | 41.27624 | 4.55469 | 35939 ft | 495 kts | 3° |
| 2026-05-05 12:40 | 41.34400 | 4.57130 | 35946 ft | 494 kts | 3° |
| 2026-05-05 12:40 | 41.41184 | 4.58789 | 35946 ft | 495 kts | 3° |
| 2026-05-05 12:41 | 41.47965 | 4.60453 | 35944 ft | 496 kts | 3° |
| 2026-05-05 12:41 | 41.54734 | 4.62116 | 35951 ft | 496 kts | 3° |
| 2026-05-05 12:42 | 41.61520 | 4.63787 | 35949 ft | 496 kts | 3° |
| 2026-05-05 12:42 | 41.68240 | 4.65862 | 35945 ft | 504 kts | 13° |
| 2026-05-05 12:43 | 41.74692 | 4.69843 | 35952 ft | 515 kts | 28° |
| 2026-05-05 12:43 | 41.80369 | 4.75740 | 35955 ft | 521 kts | 41° |
| 2026-05-05 12:44 | 41.85524 | 4.82637 | 35956 ft | 523 kts | 44° |
| 2026-05-05 12:44 | 41.90600 | 4.89515 | 35963 ft | 523 kts | 43° |
| 2026-05-05 12:45 | 41.95755 | 4.96413 | 35961 ft | 523 kts | 43° |
| 2026-05-05 12:45 | 42.00939 | 5.03322 | 35954 ft | 524 kts | 43° |
| 2026-05-05 12:46 | 42.06098 | 5.10202 | 35948 ft | 524 kts | 43° |
| 2026-05-05 12:46 | 42.11279 | 5.17132 | 35949 ft | 522 kts | 43° |
| 2026-05-05 12:47 | 42.16423 | 5.24028 | 35949 ft | 521 kts | 43° |
| 2026-05-05 12:47 | 42.21551 | 5.30918 | 35957 ft | 521 kts | 43° |
| 2026-05-05 12:48 | 42.26694 | 5.37849 | 35961 ft | 520 kts | 43° |
| 2026-05-05 12:48 | 42.31795 | 5.44736 | 35952 ft | 520 kts | 43° |
| 2026-05-05 12:49 | 42.36880 | 5.51619 | 35956 ft | 518 kts | 43° |
| 2026-05-05 12:49 | 42.41962 | 5.58514 | 35952 ft | 518 kts | 43° |
| 2026-05-05 12:50 | 42.47047 | 5.65428 | 35958 ft | 518 kts | 43° |
| 2026-05-05 12:50 | 42.52095 | 5.72314 | 35950 ft | 517 kts | 43° |
| 2026-05-05 12:51 | 42.57158 | 5.79232 | 35955 ft | 516 kts | 44° |
| 2026-05-05 12:51 | 42.62163 | 5.86088 | 35954 ft | 515 kts | 44° |
| 2026-05-05 12:52 | 42.67179 | 5.92978 | 35948 ft | 515 kts | 44° |
| 2026-05-05 12:52 | 42.72220 | 5.99915 | 35961 ft | 515 kts | 44° |
| 2026-05-05 12:53 | 42.77235 | 6.06830 | 35953 ft | 514 kts | 44° |
| 2026-05-05 12:53 | 42.82233 | 6.13743 | 35953 ft | 514 kts | 44° |
| 2026-05-05 12:54 | 42.90076 | 6.23585 | 35954 ft | 511 kts | 37° |
| 2026-05-05 12:55 | 42.95499 | 6.29748 | 35956 ft | 510 kts | 37° |
| 2026-05-05 12:55 | 43.00920 | 6.35942 | 35953 ft | 509 kts | 37° |
| 2026-05-05 12:56 | 43.06351 | 6.42187 | 35953 ft | 509 kts | 37° |
| 2026-05-05 12:56 | 43.11770 | 6.48436 | 35941 ft | 509 kts | 38° |
| 2026-05-05 12:57 | 43.17152 | 6.54668 | 35941 ft | 509 kts | 38° |
| 2026-05-05 12:57 | 43.22254 | 6.61435 | 35944 ft | 512 kts | 46° |
| 2026-05-05 12:58 | 43.26685 | 6.69052 | 35929 ft | 512 kts | 54° |
| 2026-05-05 12:58 | 43.30841 | 6.77017 | 35921 ft | 511 kts | 54° |
| 2026-05-05 12:59 | 43.34956 | 6.84888 | 35929 ft | 511 kts | 54° |
| 2026-05-05 12:59 | 43.39120 | 6.92811 | 35935 ft | 511 kts | 54° |
| 2026-05-05 13:00 | 43.45319 | 7.04666 | 35938 ft | 510 kts | 54° |
| 2026-05-05 13:01 | 43.53561 | 7.20473 | 35941 ft | 508 kts | 54° |
| 2026-05-05 13:01 | 43.57675 | 7.28390 | 35952 ft | 507 kts | 54° |
| 2026-05-05 13:02 | 43.61771 | 7.36296 | 35945 ft | 506 kts | 54° |
| 2026-05-05 13:02 | 43.65833 | 7.44175 | 35950 ft | 505 kts | 54° |
| 2026-05-05 13:03 | 43.69875 | 7.52026 | 35945 ft | 504 kts | 54° |
| 2026-05-05 13:03 | 43.73931 | 7.59916 | 35939 ft | 503 kts | 54° |
| 2026-05-05 13:04 | 43.77969 | 7.67771 | 35938 ft | 502 kts | 53° |
| 2026-05-05 13:04 | 43.82432 | 7.75183 | 35958 ft | 500 kts | 45° |
| 2026-05-05 13:05 | 43.87488 | 7.81675 | 35971 ft | 497 kts | 37° |
| 2026-05-05 13:05 | 43.92962 | 7.87489 | 35973 ft | 494 kts | 35° |
| 2026-05-05 13:06 | 43.98185 | 7.93734 | 35972 ft | 495 kts | 42° |
| 2026-05-05 13:06 | 44.03144 | 8.00348 | 35972 ft | 494 kts | 43° |
| 2026-05-05 13:07 | 44.08065 | 8.06954 | 35978 ft | 495 kts | 43° |
| 2026-05-05 13:07 | 44.13026 | 8.13599 | 35979 ft | 496 kts | 43° |
| 2026-05-05 13:08 | 44.17997 | 8.20253 | 35981 ft | 497 kts | 43° |
| 2026-05-05 13:08 | 44.23005 | 8.26973 | 35973 ft | 497 kts | 43° |
| 2026-05-05 13:09 | 44.27934 | 8.33606 | 35975 ft | 497 kts | 43° |
| 2026-05-05 13:09 | 44.32937 | 8.40349 | 35976 ft | 498 kts | 43° |
| 2026-05-05 13:10 | 44.37899 | 8.47059 | 35974 ft | 499 kts | 43° |
| 2026-05-05 13:10 | 44.42864 | 8.53790 | 35974 ft | 499 kts | 43° |
| 2026-05-05 13:11 | 44.47860 | 8.60576 | 35974 ft | 498 kts | 43° |
| 2026-05-05 13:11 | 44.52822 | 8.67333 | 35978 ft | 498 kts | 43° |
| 2026-05-05 13:12 | 44.57774 | 8.74094 | 35978 ft | 497 kts | 43° |
| 2026-05-05 13:12 | 44.62706 | 8.80848 | 35975 ft | 497 kts | 44° |
| 2026-05-05 13:13 | 44.67673 | 8.87661 | 35975 ft | 497 kts | 44° |
| 2026-05-05 13:13 | 44.72583 | 8.94418 | 35976 ft | 496 kts | 44° |
| 2026-05-05 13:14 | 44.77506 | 9.01209 | 35967 ft | 496 kts | 44° |
| 2026-05-05 13:14 | 44.82419 | 9.08000 | 35965 ft | 495 kts | 44° |
| 2026-05-05 13:15 | 44.87336 | 9.14819 | 35974 ft | 495 kts | 44° |
| 2026-05-05 13:15 | 44.92232 | 9.21622 | 35968 ft | 494 kts | 44° |
| 2026-05-05 13:16 | 44.97093 | 9.28394 | 35974 ft | 494 kts | 44° |
| 2026-05-05 13:16 | 45.01959 | 9.35192 | 35984 ft | 493 kts | 44° |
| 2026-05-05 13:17 | 45.06839 | 9.42025 | 35976 ft | 492 kts | 43° |
| 2026-05-05 13:17 | 45.11718 | 9.48872 | 35978 ft | 492 kts | 44° |
| 2026-05-05 13:18 | 45.16544 | 9.55663 | 35981 ft | 492 kts | 43° |
| 2026-05-05 13:18 | 45.21410 | 9.62528 | 35983 ft | 492 kts | 44° |
| 2026-05-05 13:19 | 45.26246 | 9.69368 | 35982 ft | 492 kts | 44° |
| 2026-05-05 13:19 | 45.31060 | 9.76193 | 35982 ft | 491 kts | 44° |
| 2026-05-05 13:20 | 45.35887 | 9.83051 | 35986 ft | 491 kts | 44° |
| 2026-05-05 13:20 | 45.40715 | 9.89926 | 35982 ft | 491 kts | 44° |
| 2026-05-05 13:21 | 45.45525 | 9.96794 | 35988 ft | 491 kts | 44° |
| 2026-05-05 13:21 | 45.50313 | 10.03751 | 35984 ft | 490 kts | 45° |
| 2026-05-05 13:22 | 45.54973 | 10.10784 | 35985 ft | 490 kts | 45° |
| 2026-05-05 13:22 | 45.59650 | 10.17850 | 35982 ft | 489 kts | 45° |
| 2026-05-05 13:23 | 45.64334 | 10.24918 | 35982 ft | 489 kts | 45° |
| 2026-05-05 13:23 | 45.69008 | 10.31979 | 35991 ft | 489 kts | 45° |
| 2026-05-05 13:24 | 45.73677 | 10.39047 | 35994 ft | 489 kts | 45° |
| 2026-05-05 13:24 | 45.78325 | 10.46105 | 35992 ft | 488 kts | 45° |
| 2026-05-05 13:25 | 45.82993 | 10.53204 | 35996 ft | 488 kts | 45° |
| 2026-05-05 13:25 | 45.87626 | 10.60268 | 35997 ft | 487 kts | 44° |
| 2026-05-05 13:26 | 45.92540 | 10.66846 | 35992 ft | 484 kts | 38° |
| 2026-05-05 13:26 | 45.98011 | 10.72533 | 35993 ft | 481 kts | 30° |
| 2026-05-05 13:27 | 46.03846 | 10.77257 | 35987 ft | 479 kts | 25° |
| 2026-05-05 13:27 | 46.09712 | 10.81700 | 35992 ft | 479 kts | 25° |
| 2026-05-05 13:28 | 46.15608 | 10.86207 | 35995 ft | 479 kts | 25° |
| 2026-05-05 13:28 | 46.21503 | 10.90752 | 35997 ft | 480 kts | 25° |
| 2026-05-05 13:29 | 46.27383 | 10.95299 | 36000 ft | 479 kts | 26° |
| 2026-05-05 13:29 | 46.33272 | 10.99870 | 36004 ft | 480 kts | 26° |
| 2026-05-05 13:30 | 46.39341 | 11.03814 | 35993 ft | 477 kts | 16° |
| 2026-05-05 13:30 | 46.42477 | 11.05177 | 35602 ft | 476 kts | 10° |
| 2026-05-05 13:30 | 46.45738 | 11.06116 | 35141 ft | 474 kts | 5° |
| 2026-05-05 13:31 | 46.49009 | 11.06606 | 34683 ft | 472 kts | 359° |
| 2026-05-05 13:31 | 46.52307 | 11.06708 | 34186 ft | 472 kts | 356° |
| 2026-05-05 13:31 | 46.55577 | 11.06650 | 33663 ft | 474 kts | 355° |
| 2026-05-05 13:31 | 46.58876 | 11.06582 | 33140 ft | 477 kts | 356° |
| 2026-05-05 13:32 | 46.62182 | 11.06527 | 32613 ft | 479 kts | 355° |
| 2026-05-05 13:32 | 46.65514 | 11.06293 | 32084 ft | 479 kts | 352° |
| 2026-05-05 13:32 | 46.68845 | 11.05804 | 31557 ft | 479 kts | 350° |
| 2026-05-05 13:32 | 46.72124 | 11.05199 | 31037 ft | 481 kts | 349° |
| 2026-05-05 13:33 | 46.75456 | 11.04553 | 30511 ft | 484 kts | 350° |
| 2026-05-05 13:33 | 46.78781 | 11.03915 | 29993 ft | 486 kts | 350° |
| 2026-05-05 13:33 | 46.82173 | 11.03271 | 29507 ft | 487 kts | 350° |
| 2026-05-05 13:33 | 46.85519 | 11.02635 | 29032 ft | 489 kts | 350° |
| 2026-05-05 13:34 | 46.88868 | 11.02005 | 28554 ft | 490 kts | 351° |
| 2026-05-05 13:34 | 46.92296 | 11.01569 | 28076 ft | 492 kts | 355° |
| 2026-05-05 13:34 | 46.95692 | 11.01445 | 27606 ft | 494 kts | 359° |
| 2026-05-05 13:34 | 46.99129 | 11.01635 | 27131 ft | 495 kts | 2° |
| 2026-05-05 13:35 | 47.02559 | 11.02082 | 26656 ft | 495 kts | 4° |
| 2026-05-05 13:35 | 47.05995 | 11.02612 | 26178 ft | 495 kts | 5° |
| 2026-05-05 13:35 | 47.09391 | 11.03151 | 25707 ft | 495 kts | 5° |
| 2026-05-05 13:35 | 47.12834 | 11.03693 | 25235 ft | 496 kts | 5° |
| 2026-05-05 13:36 | 47.16229 | 11.04221 | 24761 ft | 496 kts | 5° |
| 2026-05-05 13:36 | 47.19630 | 11.04742 | 24313 ft | 487 kts | 5° |
| 2026-05-05 13:36 | 47.22971 | 11.05251 | 23915 ft | 475 kts | 5° |
| 2026-05-05 13:36 | 47.26233 | 11.05745 | 23515 ft | 465 kts | 5° |
| 2026-05-05 13:37 | 47.29410 | 11.06226 | 23119 ft | 455 kts | 5° |
| 2026-05-05 13:37 | 47.32555 | 11.06703 | 22720 ft | 446 kts | 5° |
| 2026-05-05 13:37 | 47.35601 | 11.07170 | 22331 ft | 438 kts | 5° |
| 2026-05-05 13:37 | 47.38615 | 11.07636 | 21943 ft | 434 kts | 5° |
| 2026-05-05 13:38 | 47.41573 | 11.08398 | 21546 ft | 432 kts | 15° |
| 2026-05-05 13:38 | 47.44429 | 11.09856 | 21158 ft | 430 kts | 21° |
| 2026-05-05 13:38 | 47.47178 | 11.11439 | 20778 ft | 427 kts | 21° |
| 2026-05-05 13:38 | 47.49961 | 11.13026 | 20394 ft | 425 kts | 20° |
| 2026-05-05 13:39 | 47.52715 | 11.14547 | 19998 ft | 423 kts | 20° |
| 2026-05-05 13:39 | 47.55466 | 11.16026 | 19611 ft | 420 kts | 19° |
| 2026-05-05 13:39 | 47.58199 | 11.17470 | 19230 ft | 418 kts | 19° |
| 2026-05-05 13:39 | 47.60912 | 11.18892 | 18856 ft | 416 kts | 19° |
| 2026-05-05 13:40 | 47.63666 | 11.20330 | 18470 ft | 413 kts | 19° |
| 2026-05-05 13:40 | 47.66361 | 11.21735 | 18089 ft | 410 kts | 19° |
| 2026-05-05 13:40 | 47.69039 | 11.23136 | 17716 ft | 408 kts | 19° |
| 2026-05-05 13:40 | 47.71723 | 11.24543 | 17336 ft | 405 kts | 19° |
| 2026-05-05 13:41 | 47.74379 | 11.25932 | 16974 ft | 403 kts | 19° |
| 2026-05-05 13:41 | 47.77023 | 11.27310 | 16601 ft | 400 kts | 19° |
| 2026-05-05 13:41 | 47.79638 | 11.28668 | 16222 ft | 398 kts | 19° |
| 2026-05-05 13:41 | 47.82226 | 11.30008 | 15863 ft | 396 kts | 19° |
| 2026-05-05 13:42 | 47.84809 | 11.31340 | 15514 ft | 393 kts | 19° |
| 2026-05-05 13:42 | 47.87405 | 11.32673 | 15123 ft | 391 kts | 19° |
| 2026-05-05 13:42 | 47.89949 | 11.33979 | 14746 ft | 389 kts | 19° |
| 2026-05-05 13:42 | 47.92508 | 11.35295 | 14364 ft | 387 kts | 19° |
| 2026-05-05 13:43 | 47.94955 | 11.36921 | 13967 ft | 384 kts | 34° |
| 2026-05-05 13:43 | 47.96821 | 11.39717 | 13579 ft | 378 kts | 55° |
| 2026-05-05 13:43 | 47.98264 | 11.42975 | 13237 ft | 376 kts | 59° |
| 2026-05-05 13:43 | 47.99635 | 11.46243 | 12739 ft | 374 kts | 59° |
| 2026-05-05 13:44 | 48.01057 | 11.49529 | 12265 ft | 371 kts | 58° |
| 2026-05-05 13:44 | 48.02485 | 11.52703 | 11771 ft | 369 kts | 57° |
| 2026-05-05 13:44 | 48.03931 | 11.55838 | 11293 ft | 366 kts | 56° |
| 2026-05-05 13:44 | 48.05381 | 11.58932 | 10799 ft | 363 kts | 56° |
| 2026-05-05 13:45 | 48.06817 | 11.61971 | 10477 ft | 355 kts | 56° |
| 2026-05-05 13:45 | 48.08220 | 11.64929 | 10369 ft | 341 kts | 56° |
| 2026-05-05 13:45 | 48.09549 | 11.67726 | 10273 ft | 327 kts | 56° |
| 2026-05-05 13:45 | 48.10836 | 11.70436 | 10197 ft | 313 kts | 57° |
| 2026-05-05 13:46 | 48.12078 | 11.73053 | 10091 ft | 300 kts | 57° |
| 2026-05-05 13:46 | 48.13269 | 11.75565 | 9801 ft | 295 kts | 57° |
| 2026-05-05 13:46 | 48.14441 | 11.78039 | 9504 ft | 291 kts | 57° |
| 2026-05-05 13:46 | 48.15606 | 11.80503 | 9202 ft | 286 kts | 56° |
| 2026-05-05 13:47 | 48.16738 | 11.82900 | 8905 ft | 282 kts | 57° |
| 2026-05-05 13:47 | 48.17861 | 11.85280 | 8607 ft | 278 kts | 56° |
| 2026-05-05 13:47 | 48.18961 | 11.87621 | 8301 ft | 276 kts | 56° |
| 2026-05-05 13:47 | 48.20054 | 11.89956 | 8016 ft | 274 kts | 56° |
| 2026-05-05 13:48 | 48.21151 | 11.92308 | 7716 ft | 272 kts | 56° |
| 2026-05-05 13:48 | 48.22226 | 11.94622 | 7416 ft | 270 kts | 56° |
| 2026-05-05 13:48 | 48.23284 | 11.96910 | 7119 ft | 268 kts | 56° |
| 2026-05-05 13:48 | 48.24338 | 11.99206 | 6759 ft | 267 kts | 56° |
| 2026-05-05 13:49 | 48.25388 | 12.01493 | 6389 ft | 266 kts | 54° |
| 2026-05-05 13:49 | 48.26737 | 12.03381 | 6023 ft | 265 kts | 28° |
| 2026-05-05 13:49 | 48.28465 | 12.04085 | 5826 ft | 258 kts | 5° |
| 2026-05-05 13:49 | 48.30230 | 12.04096 | 5627 ft | 251 kts | 356° |
| 2026-05-05 13:50 | 48.31967 | 12.03878 | 5367 ft | 246 kts | 355° |
| 2026-05-05 13:50 | 48.33643 | 12.03555 | 4908 ft | 242 kts | 342° |
| 2026-05-05 13:50 | 48.35041 | 12.02282 | 4424 ft | 238 kts | 310° |
| 2026-05-05 13:50 | 48.35765 | 12.00159 | 3967 ft | 224 kts | 280° |
| 2026-05-05 13:51 | 48.35833 | 11.97940 | 3659 ft | 205 kts | 268° |
| 2026-05-05 13:51 | 48.35708 | 11.95858 | 3452 ft | 190 kts | 265° |
| 2026-05-05 13:51 | 48.35548 | 11.93955 | 3217 ft | 179 kts | 264° |
| 2026-05-05 13:51 | 48.35397 | 11.92186 | 2990 ft | 166 kts | 264° |
| 2026-05-05 13:52 | 48.35260 | 11.90490 | 2752 ft | 161 kts | 265° |
| 2026-05-05 13:52 | 48.35128 | 11.88821 | 2536 ft | 158 kts | 265° |
| 2026-05-05 13:52 | 48.35002 | 11.87193 | 2346 ft | 158 kts | 265° |
| 2026-05-05 13:52 | 48.34875 | 11.85548 | 2139 ft | 157 kts | 264° |
| 2026-05-05 13:53 | 48.34753 | 11.83925 | 1940 ft | 157 kts | 265° |
| 2026-05-05 13:53 | 48.34624 | 11.82296 | 1690 ft | 157 kts | 263° |
| 2026-05-05 13:53 | 48.34495 | 11.80662 | 1541 ft | 157 kts | 264° |
| 2026-05-05 13:53 | 48.34374 | 11.79082 | 1482 ft | 141 kts | 264° |
| 2026-05-05 13:54 | 48.34285 | 11.77915 | 1485 ft | 78 kts | 263° |
| 2026-05-05 13:54 | 48.34258 | 11.77327 | 1487 ft | 43 kts | 281° |
| 2026-05-05 13:54 | 48.34351 | 11.76931 | 1487 ft | 34 kts | 294° |
| 2026-05-05 13:54 | 48.34450 | 11.76715 | 1487 ft | 22 kts | 339° |
| 2026-05-05 13:55 | 48.34568 | 11.76734 | 1487 ft | 16 kts | 66° |
| 2026-05-05 13:55 | 48.34584 | 11.76901 | 1487 ft | 17 kts | 85° |
| 2026-05-05 13:55 | 48.34600 | 11.77087 | 1486 ft | 20 kts | 83° |
| 2026-05-05 13:55 | 48.34616 | 11.77304 | 1486 ft | 20 kts | 83° |
| 2026-05-05 13:56 | 48.34634 | 11.77518 | 1485 ft | 20 kts | 83° |
| 2026-05-05 13:56 | 48.34649 | 11.77727 | 1484 ft | 20 kts | 84° |
| 2026-05-05 13:56 | 48.34689 | 11.77891 | 1484 ft | 15 kts | 20° |
| 2026-05-05 13:56 | 48.34793 | 11.77878 | 1484 ft | 15 kts | 353° |
| 2026-05-05 13:57 | 48.34899 | 11.77860 | 1484 ft | 15 kts | 354° |
| 2026-05-05 13:57 | 48.35006 | 11.77842 | 1483 ft | 15 kts | 354° |
| 2026-05-05 13:57 | 48.35112 | 11.77825 | 1483 ft | 15 kts | 354° |
| 2026-05-05 13:57 | 48.35183 | 11.77904 | 1483 ft | 13 kts | 80° |
| 2026-05-05 13:58 | 48.35195 | 11.78044 | 1483 ft | 13 kts | 84° |
| 2026-05-05 13:58 | 48.35182 | 11.78172 | 1483 ft | 12 kts | 138° |
| 2026-05-05 13:58 | 48.35113 | 11.78201 | 1483 ft | 9 kts | 174° |
| 2026-05-05 13:58 | 48.35080 | 11.78229 | 1483 ft | 4 kts | 101° |
| 2026-05-05 13:59 | 48.35085 | 11.78320 | 1482 ft | 3 kts | 84° |
| 2026-05-05 13:59 | 48.35088 | 11.78348 | 1482 ft | 0 kts | 83° |